sensor_id;sensor_type;location;lat;lon;timestamp;P1;durP1;ratioP1;P2;durP2;ratioP2
24161;SDS011;12318;51.262;7.066;2024-02-04T00:00:10;18.25;;;13.43;;
24161;SDS011;12318;51.262;7.066;2024-02-04T00:02:38;24.98;;;17.17;;
24161;SDS011;12318;51.262;7.066;2024-02-04T00:05:04;25.48;;;17.00;;
24161;SDS011;12318;51.262;7.066;2024-02-04T00:07:30;23.63;;;16.05;;
24161;SDS011;12318;51.262;7.066;2024-02-04T00:09:56;30.85;;;17.77;;
24161;SDS011;12318;51.262;7.066;2024-02-04T00:12:22;24.17;;;16.27;;
24161;SDS011;12318;51.262;7.066;2024-02-04T00:14:49;29.40;;;16.70;;
24161;SDS011;12318;51.262;7.066;2024-02-04T00:17:15;25.27;;;15.98;;
24161;SDS011;12318;51.262;7.066;2024-02-04T00:19:42;30.52;;;16.88;;
24161;SDS011;12318;51.262;7.066;2024-02-04T00:22:08;18.33;;;13.85;;
24161;SDS011;12318;51.262;7.066;2024-02-04T00:24:34;20.73;;;13.13;;
24161;SDS011;12318;51.262;7.066;2024-02-04T00:27:00;21.50;;;13.60;;
24161;SDS011;12318;51.262;7.066;2024-02-04T00:29:26;19.65;;;12.27;;
24161;SDS011;12318;51.262;7.066;2024-02-04T00:31:52;18.88;;;12.27;;
24161;SDS011;12318;51.262;7.066;2024-02-04T00:34:18;13.57;;;8.88;;
24161;SDS011;12318;51.262;7.066;2024-02-04T00:36:44;12.82;;;8.35;;
24161;SDS011;12318;51.262;7.066;2024-02-04T00:39:13;12.95;;;8.38;;
24161;SDS011;12318;51.262;7.066;2024-02-04T00:41:40;9.80;;;5.72;;
24161;SDS011;12318;51.262;7.066;2024-02-04T00:44:06;14.10;;;7.38;;
24161;SDS011;12318;51.262;7.066;2024-02-04T00:46:32;10.75;;;6.47;;
24161;SDS011;12318;51.262;7.066;2024-02-04T00:48:58;9.18;;;5.45;;
24161;SDS011;12318;51.262;7.066;2024-02-04T00:51:24;9.98;;;6.72;;
24161;SDS011;12318;51.262;7.066;2024-02-04T00:53:50;11.55;;;7.15;;
24161;SDS011;12318;51.262;7.066;2024-02-04T00:56:17;10.77;;;7.78;;
24161;SDS011;12318;51.262;7.066;2024-02-04T00:58:44;10.25;;;7.00;;
24161;SDS011;12318;51.262;7.066;2024-02-04T01:01:10;14.45;;;9.43;;
24161;SDS011;12318;51.262;7.066;2024-02-04T01:03:36;13.32;;;9.35;;
24161;SDS011;12318;51.262;7.066;2024-02-04T01:06:03;12.68;;;8.27;;
24161;SDS011;12318;51.262;7.066;2024-02-04T01:08:29;15.65;;;9.88;;
24161;SDS011;12318;51.262;7.066;2024-02-04T01:10:56;17.63;;;8.65;;
24161;SDS011;12318;51.262;7.066;2024-02-04T01:13:22;11.65;;;7.30;;
24161;SDS011;12318;51.262;7.066;2024-02-04T01:15:48;13.07;;;5.97;;
24161;SDS011;12318;51.262;7.066;2024-02-04T01:18:14;6.85;;;5.13;;
24161;SDS011;12318;51.262;7.066;2024-02-04T01:20:40;10.15;;;7.55;;
24161;SDS011;12318;51.262;7.066;2024-02-04T01:26:10;14.65;;;9.40;;
24161;SDS011;12318;51.262;7.066;2024-02-04T01:28:36;13.45;;;9.00;;
24161;SDS011;12318;51.262;7.066;2024-02-04T01:31:02;18.20;;;11.32;;
24161;SDS011;12318;51.262;7.066;2024-02-04T01:33:28;11.27;;;8.00;;
24161;SDS011;12318;51.262;7.066;2024-02-04T01:35:54;18.75;;;9.45;;
24161;SDS011;12318;51.262;7.066;2024-02-04T01:38:20;12.77;;;8.32;;
24161;SDS011;12318;51.262;7.066;2024-02-04T01:40:46;15.13;;;8.90;;
24161;SDS011;12318;51.262;7.066;2024-02-04T01:43:14;19.35;;;10.20;;
24161;SDS011;12318;51.262;7.066;2024-02-04T01:45:40;22.33;;;10.65;;
24161;SDS011;12318;51.262;7.066;2024-02-04T01:48:06;20.80;;;10.48;;
24161;SDS011;12318;51.262;7.066;2024-02-04T01:50:33;19.27;;;10.07;;
24161;SDS011;12318;51.262;7.066;2024-02-04T01:53:00;19.40;;;10.68;;
24161;SDS011;12318;51.262;7.066;2024-02-04T01:55:26;23.33;;;11.38;;
24161;SDS011;12318;51.262;7.066;2024-02-04T01:57:52;19.33;;;10.48;;
24161;SDS011;12318;51.262;7.066;2024-02-04T02:00:18;31.98;;;12.30;;
24161;SDS011;12318;51.262;7.066;2024-02-04T02:02:46;14.73;;;9.48;;
24161;SDS011;12318;51.262;7.066;2024-02-04T02:05:12;24.65;;;11.45;;
24161;SDS011;12318;51.262;7.066;2024-02-04T02:07:39;21.45;;;11.02;;
24161;SDS011;12318;51.262;7.066;2024-02-04T02:10:06;23.88;;;11.30;;
24161;SDS011;12318;51.262;7.066;2024-02-04T02:12:37;22.35;;;11.25;;
24161;SDS011;12318;51.262;7.066;2024-02-04T02:15:14;24.63;;;11.70;;
24161;SDS011;12318;51.262;7.066;2024-02-04T02:18:03;36.53;;;14.02;;
24161;SDS011;12318;51.262;7.066;2024-02-04T02:23:27;27.23;;;13.48;;
24161;SDS011;12318;51.262;7.066;2024-02-04T02:25:55;24.88;;;11.52;;
24161;SDS011;12318;51.262;7.066;2024-02-04T02:28:21;26.52;;;13.45;;
24161;SDS011;12318;51.262;7.066;2024-02-04T02:30:47;23.08;;;12.30;;
24161;SDS011;12318;51.262;7.066;2024-02-04T02:33:13;66.80;;;16.48;;
24161;SDS011;12318;51.262;7.066;2024-02-04T02:35:40;20.63;;;11.27;;
24161;SDS011;12318;51.262;7.066;2024-02-04T02:38:20;27.20;;;12.55;;
24161;SDS011;12318;51.262;7.066;2024-02-04T02:40:58;37.15;;;14.57;;
24161;SDS011;12318;51.262;7.066;2024-02-04T02:43:25;41.92;;;15.52;;
24161;SDS011;12318;51.262;7.066;2024-02-04T02:45:52;30.77;;;14.32;;
24161;SDS011;12318;51.262;7.066;2024-02-04T02:48:18;23.35;;;13.40;;
24161;SDS011;12318;51.262;7.066;2024-02-04T02:50:45;34.55;;;15.40;;
24161;SDS011;12318;51.262;7.066;2024-02-04T02:53:11;27.67;;;15.43;;
24161;SDS011;12318;51.262;7.066;2024-02-04T02:55:37;34.60;;;16.13;;
24161;SDS011;12318;51.262;7.066;2024-02-04T02:58:03;42.25;;;17.52;;
24161;SDS011;12318;51.262;7.066;2024-02-04T03:00:29;39.13;;;17.40;;
24161;SDS011;12318;51.262;7.066;2024-02-04T03:02:55;35.72;;;15.90;;
24161;SDS011;12318;51.262;7.066;2024-02-04T03:05:22;25.17;;;14.88;;
24161;SDS011;12318;51.262;7.066;2024-02-04T03:07:48;36.40;;;16.15;;
24161;SDS011;12318;51.262;7.066;2024-02-04T03:10:14;31.23;;;14.75;;
24161;SDS011;12318;51.262;7.066;2024-02-04T03:12:40;34.08;;;16.20;;
24161;SDS011;12318;51.262;7.066;2024-02-04T03:15:12;37.13;;;17.17;;
24161;SDS011;12318;51.262;7.066;2024-02-04T03:17:38;35.55;;;17.33;;
24161;SDS011;12318;51.262;7.066;2024-02-04T03:20:04;37.03;;;17.38;;
24161;SDS011;12318;51.262;7.066;2024-02-04T03:22:31;23.35;;;13.27;;
24161;SDS011;12318;51.262;7.066;2024-02-04T03:24:58;36.65;;;16.52;;
24161;SDS011;12318;51.262;7.066;2024-02-04T03:27:24;31.83;;;15.23;;
24161;SDS011;12318;51.262;7.066;2024-02-04T03:29:50;24.83;;;12.80;;
24161;SDS011;12318;51.262;7.066;2024-02-04T03:32:16;27.35;;;12.95;;
24161;SDS011;12318;51.262;7.066;2024-02-04T03:34:42;24.00;;;11.10;;
24161;SDS011;12318;51.262;7.066;2024-02-04T03:37:08;23.23;;;10.93;;
24161;SDS011;12318;51.262;7.066;2024-02-04T03:39:34;23.58;;;10.73;;
24161;SDS011;12318;51.262;7.066;2024-02-04T03:42:00;25.98;;;11.02;;
24161;SDS011;12318;51.262;7.066;2024-02-04T03:44:26;23.48;;;10.63;;
24161;SDS011;12318;51.262;7.066;2024-02-04T03:46:53;34.13;;;11.93;;
24161;SDS011;12318;51.262;7.066;2024-02-04T03:49:19;20.80;;;10.45;;
24161;SDS011;12318;51.262;7.066;2024-02-04T03:51:45;20.25;;;10.10;;
24161;SDS011;12318;51.262;7.066;2024-02-04T03:54:13;33.63;;;12.68;;
24161;SDS011;12318;51.262;7.066;2024-02-04T03:56:39;19.13;;;9.40;;
24161;SDS011;12318;51.262;7.066;2024-02-04T03:59:07;20.70;;;9.52;;
24161;SDS011;12318;51.262;7.066;2024-02-04T04:01:33;26.63;;;10.02;;
24161;SDS011;12318;51.262;7.066;2024-02-04T04:04:00;18.63;;;8.63;;
24161;SDS011;12318;51.262;7.066;2024-02-04T04:06:26;21.70;;;10.07;;
24161;SDS011;12318;51.262;7.066;2024-02-04T04:08:52;19.38;;;8.90;;
24161;SDS011;12318;51.262;7.066;2024-02-04T04:11:18;21.17;;;10.50;;
24161;SDS011;12318;51.262;7.066;2024-02-04T04:13:45;32.70;;;14.13;;
24161;SDS011;12318;51.262;7.066;2024-02-04T04:16:11;44.08;;;18.05;;
24161;SDS011;12318;51.262;7.066;2024-02-04T04:18:37;43.63;;;18.10;;
24161;SDS011;12318;51.262;7.066;2024-02-04T04:21:03;43.90;;;19.92;;
24161;SDS011;12318;51.262;7.066;2024-02-04T04:23:30;48.20;;;20.77;;
24161;SDS011;12318;51.262;7.066;2024-02-04T04:25:56;55.45;;;21.38;;
24161;SDS011;12318;51.262;7.066;2024-02-04T04:28:22;44.67;;;20.88;;
24161;SDS011;12318;51.262;7.066;2024-02-04T04:30:48;51.40;;;24.13;;
24161;SDS011;12318;51.262;7.066;2024-02-04T04:33:14;52.60;;;24.52;;
24161;SDS011;12318;51.262;7.066;2024-02-04T04:35:41;58.65;;;26.77;;
24161;SDS011;12318;51.262;7.066;2024-02-04T04:38:07;62.42;;;27.15;;
24161;SDS011;12318;51.262;7.066;2024-02-04T04:40:33;60.70;;;27.40;;
24161;SDS011;12318;51.262;7.066;2024-02-04T04:42:59;56.45;;;26.17;;
24161;SDS011;12318;51.262;7.066;2024-02-04T04:45:25;60.92;;;27.27;;
24161;SDS011;12318;51.262;7.066;2024-02-04T04:47:51;62.30;;;27.33;;
24161;SDS011;12318;51.262;7.066;2024-02-04T04:50:17;71.15;;;30.13;;
24161;SDS011;12318;51.262;7.066;2024-02-04T04:52:43;62.30;;;28.48;;
24161;SDS011;12318;51.262;7.066;2024-02-04T04:55:10;69.35;;;29.92;;
24161;SDS011;12318;51.262;7.066;2024-02-04T04:57:36;63.00;;;29.20;;
24161;SDS011;12318;51.262;7.066;2024-02-04T05:00:02;52.20;;;26.45;;
24161;SDS011;12318;51.262;7.066;2024-02-04T05:02:35;48.33;;;25.30;;
24161;SDS011;12318;51.262;7.066;2024-02-04T05:05:02;53.63;;;26.50;;
24161;SDS011;12318;51.262;7.066;2024-02-04T05:07:28;57.10;;;27.17;;
24161;SDS011;12318;51.262;7.066;2024-02-04T05:09:54;53.03;;;26.58;;
24161;SDS011;12318;51.262;7.066;2024-02-04T05:12:20;45.58;;;24.48;;
24161;SDS011;12318;51.262;7.066;2024-02-04T05:14:46;56.78;;;27.13;;
24161;SDS011;12318;51.262;7.066;2024-02-04T05:17:12;59.53;;;27.60;;
24161;SDS011;12318;51.262;7.066;2024-02-04T05:19:40;41.78;;;23.65;;
24161;SDS011;12318;51.262;7.066;2024-02-04T05:22:07;48.17;;;27.10;;
24161;SDS011;12318;51.262;7.066;2024-02-04T05:24:34;54.22;;;28.75;;
24161;SDS011;12318;51.262;7.066;2024-02-04T05:27:00;57.45;;;28.23;;
24161;SDS011;12318;51.262;7.066;2024-02-04T05:29:26;59.63;;;28.88;;
24161;SDS011;12318;51.262;7.066;2024-02-04T05:31:52;56.20;;;29.15;;
24161;SDS011;12318;51.262;7.066;2024-02-04T05:34:18;57.67;;;30.10;;
24161;SDS011;12318;51.262;7.066;2024-02-04T05:36:45;57.78;;;29.63;;
24161;SDS011;12318;51.262;7.066;2024-02-04T05:39:11;55.13;;;26.67;;
24161;SDS011;12318;51.262;7.066;2024-02-04T05:41:38;59.25;;;29.02;;
24161;SDS011;12318;51.262;7.066;2024-02-04T05:44:04;60.20;;;28.60;;
24161;SDS011;12318;51.262;7.066;2024-02-04T05:46:31;61.53;;;29.25;;
24161;SDS011;12318;51.262;7.066;2024-02-04T05:48:57;60.30;;;29.33;;
24161;SDS011;12318;51.262;7.066;2024-02-04T05:51:23;60.75;;;29.63;;
24161;SDS011;12318;51.262;7.066;2024-02-04T05:53:50;56.17;;;28.40;;
24161;SDS011;12318;51.262;7.066;2024-02-04T05:56:16;64.78;;;29.45;;
24161;SDS011;12318;51.262;7.066;2024-02-04T05:58:42;54.85;;;27.63;;
24161;SDS011;12318;51.262;7.066;2024-02-04T06:01:08;60.08;;;29.48;;
24161;SDS011;12318;51.262;7.066;2024-02-04T06:03:34;50.78;;;27.13;;
24161;SDS011;12318;51.262;7.066;2024-02-04T06:06:00;44.28;;;25.45;;
24161;SDS011;12318;51.262;7.066;2024-02-04T06:08:26;57.28;;;27.75;;
24161;SDS011;12318;51.262;7.066;2024-02-04T06:10:52;45.72;;;25.80;;
24161;SDS011;12318;51.262;7.066;2024-02-04T06:13:18;60.50;;;28.58;;
24161;SDS011;12318;51.262;7.066;2024-02-04T06:15:44;62.20;;;28.52;;
24161;SDS011;12318;51.262;7.066;2024-02-04T06:18:10;68.82;;;29.95;;
24161;SDS011;12318;51.262;7.066;2024-02-04T06:20:37;71.85;;;29.35;;
24161;SDS011;12318;51.262;7.066;2024-02-04T06:23:03;57.70;;;28.17;;
24161;SDS011;12318;51.262;7.066;2024-02-04T06:25:29;54.63;;;26.00;;
24161;SDS011;12318;51.262;7.066;2024-02-04T06:27:55;64.45;;;28.85;;
24161;SDS011;12318;51.262;7.066;2024-02-04T06:30:22;43.72;;;23.15;;
24161;SDS011;12318;51.262;7.066;2024-02-04T06:32:48;63.85;;;28.02;;
24161;SDS011;12318;51.262;7.066;2024-02-04T06:35:15;39.05;;;20.98;;
24161;SDS011;12318;51.262;7.066;2024-02-04T06:37:42;68.20;;;28.35;;
24161;SDS011;12318;51.262;7.066;2024-02-04T06:40:09;52.33;;;22.50;;
24161;SDS011;12318;51.262;7.066;2024-02-04T06:42:36;61.85;;;25.77;;
24161;SDS011;12318;51.262;7.066;2024-02-04T06:45:02;60.85;;;25.23;;
24161;SDS011;12318;51.262;7.066;2024-02-04T06:47:28;69.82;;;25.73;;
24161;SDS011;12318;51.262;7.066;2024-02-04T06:49:55;57.58;;;25.13;;
24161;SDS011;12318;51.262;7.066;2024-02-04T06:52:21;63.88;;;26.80;;
24161;SDS011;12318;51.262;7.066;2024-02-04T06:54:47;51.72;;;23.70;;
24161;SDS011;12318;51.262;7.066;2024-02-04T06:57:13;63.28;;;26.40;;
24161;SDS011;12318;51.262;7.066;2024-02-04T06:59:39;63.03;;;26.52;;
24161;SDS011;12318;51.262;7.066;2024-02-04T07:02:05;62.60;;;25.63;;
24161;SDS011;12318;51.262;7.066;2024-02-04T07:04:32;51.88;;;23.20;;
24161;SDS011;12318;51.262;7.066;2024-02-04T07:06:58;47.97;;;21.83;;
24161;SDS011;12318;51.262;7.066;2024-02-04T07:09:24;38.10;;;19.17;;
24161;SDS011;12318;51.262;7.066;2024-02-04T07:11:50;40.20;;;19.63;;
24161;SDS011;12318;51.262;7.066;2024-02-04T07:14:16;52.75;;;21.23;;
24161;SDS011;12318;51.262;7.066;2024-02-04T07:16:42;46.90;;;19.73;;
24161;SDS011;12318;51.262;7.066;2024-02-04T07:19:08;40.05;;;19.08;;
24161;SDS011;12318;51.262;7.066;2024-02-04T07:21:34;51.88;;;21.13;;
24161;SDS011;12318;51.262;7.066;2024-02-04T07:24:01;29.83;;;16.85;;
24161;SDS011;12318;51.262;7.066;2024-02-04T07:26:27;38.72;;;18.38;;
24161;SDS011;12318;51.262;7.066;2024-02-04T07:28:54;48.45;;;19.38;;
24161;SDS011;12318;51.262;7.066;2024-02-04T07:31:20;34.38;;;16.88;;
24161;SDS011;12318;51.262;7.066;2024-02-04T07:33:47;40.47;;;17.73;;
24161;SDS011;12318;51.262;7.066;2024-02-04T07:36:17;40.70;;;16.00;;
24161;SDS011;12318;51.262;7.066;2024-02-04T07:38:43;42.08;;;16.10;;
24161;SDS011;12318;51.262;7.066;2024-02-04T07:41:09;24.73;;;13.77;;
24161;SDS011;12318;51.262;7.066;2024-02-04T07:43:35;29.42;;;14.60;;
24161;SDS011;12318;51.262;7.066;2024-02-04T07:46:02;46.55;;;16.70;;
24161;SDS011;12318;51.262;7.066;2024-02-04T07:48:28;28.70;;;13.38;;
24161;SDS011;12318;51.262;7.066;2024-02-04T07:50:54;27.83;;;13.10;;
24161;SDS011;12318;51.262;7.066;2024-02-04T07:53:22;26.83;;;12.43;;
24161;SDS011;12318;51.262;7.066;2024-02-04T07:55:49;26.42;;;12.88;;
24161;SDS011;12318;51.262;7.066;2024-02-04T07:58:15;27.83;;;12.80;;
24161;SDS011;12318;51.262;7.066;2024-02-04T08:00:41;24.48;;;12.57;;
24161;SDS011;12318;51.262;7.066;2024-02-04T08:03:07;25.60;;;12.32;;
24161;SDS011;12318;51.262;7.066;2024-02-04T08:05:34;20.63;;;10.90;;
24161;SDS011;12318;51.262;7.066;2024-02-04T08:08:03;24.02;;;11.18;;
24161;SDS011;12318;51.262;7.066;2024-02-04T08:10:29;26.08;;;10.75;;
24161;SDS011;12318;51.262;7.066;2024-02-04T08:12:55;21.50;;;11.07;;
24161;SDS011;12318;51.262;7.066;2024-02-04T08:15:22;14.57;;;7.82;;
24161;SDS011;12318;51.262;7.066;2024-02-04T08:17:48;16.98;;;7.63;;
24161;SDS011;12318;51.262;7.066;2024-02-04T08:20:14;10.60;;;6.10;;
24161;SDS011;12318;51.262;7.066;2024-02-04T08:22:40;12.80;;;6.75;;
24161;SDS011;12318;51.262;7.066;2024-02-04T08:25:07;16.10;;;7.00;;
24161;SDS011;12318;51.262;7.066;2024-02-04T08:27:35;11.93;;;6.50;;
24161;SDS011;12318;51.262;7.066;2024-02-04T08:30:01;9.25;;;5.95;;
24161;SDS011;12318;51.262;7.066;2024-02-04T08:32:27;17.35;;;8.35;;
24161;SDS011;12318;51.262;7.066;2024-02-04T08:34:54;22.48;;;9.88;;
24161;SDS011;12318;51.262;7.066;2024-02-04T08:37:20;15.95;;;8.27;;
24161;SDS011;12318;51.262;7.066;2024-02-04T08:39:46;20.10;;;10.30;;
24161;SDS011;12318;51.262;7.066;2024-02-04T08:42:12;16.10;;;9.75;;
24161;SDS011;12318;51.262;7.066;2024-02-04T08:44:39;17.05;;;9.82;;
24161;SDS011;12318;51.262;7.066;2024-02-04T08:47:06;21.73;;;10.88;;
24161;SDS011;12318;51.262;7.066;2024-02-04T08:49:35;21.52;;;11.40;;
24161;SDS011;12318;51.262;7.066;2024-02-04T08:52:01;19.00;;;10.13;;
24161;SDS011;12318;51.262;7.066;2024-02-04T08:54:28;17.77;;;9.88;;
24161;SDS011;12318;51.262;7.066;2024-02-04T08:56:55;17.02;;;9.32;;
24161;SDS011;12318;51.262;7.066;2024-02-04T08:59:21;12.00;;;7.45;;
24161;SDS011;12318;51.262;7.066;2024-02-04T09:01:49;18.48;;;9.15;;
24161;SDS011;12318;51.262;7.066;2024-02-04T09:04:15;17.83;;;9.18;;
24161;SDS011;12318;51.262;7.066;2024-02-04T09:06:41;13.98;;;8.35;;
24161;SDS011;12318;51.262;7.066;2024-02-04T09:09:07;21.83;;;10.15;;
24161;SDS011;12318;51.262;7.066;2024-02-04T09:11:34;21.30;;;10.38;;
24161;SDS011;12318;51.262;7.066;2024-02-04T09:14:00;17.60;;;10.82;;
24161;SDS011;12318;51.262;7.066;2024-02-04T09:16:29;24.52;;;11.98;;
24161;SDS011;12318;51.262;7.066;2024-02-04T09:18:55;19.38;;;11.27;;
24161;SDS011;12318;51.262;7.066;2024-02-04T09:21:21;21.70;;;11.85;;
24161;SDS011;12318;51.262;7.066;2024-02-04T09:23:47;25.65;;;13.40;;
24161;SDS011;12318;51.262;7.066;2024-02-04T09:26:13;22.98;;;11.85;;
24161;SDS011;12318;51.262;7.066;2024-02-04T09:28:40;25.73;;;12.07;;
24161;SDS011;12318;51.262;7.066;2024-02-04T09:31:09;19.83;;;10.75;;
24161;SDS011;12318;51.262;7.066;2024-02-04T09:33:35;19.33;;;10.80;;
24161;SDS011;12318;51.262;7.066;2024-02-04T09:36:03;17.25;;;10.60;;
24161;SDS011;12318;51.262;7.066;2024-02-04T09:38:29;19.98;;;10.07;;
24161;SDS011;12318;51.262;7.066;2024-02-04T09:40:55;16.23;;;9.63;;
24161;SDS011;12318;51.262;7.066;2024-02-04T09:43:22;18.02;;;9.23;;
24161;SDS011;12318;51.262;7.066;2024-02-04T09:45:48;16.42;;;9.13;;
24161;SDS011;12318;51.262;7.066;2024-02-04T09:48:17;17.08;;;9.75;;
24161;SDS011;12318;51.262;7.066;2024-02-04T09:50:45;17.35;;;9.48;;
24161;SDS011;12318;51.262;7.066;2024-02-04T09:53:11;13.77;;;8.25;;
24161;SDS011;12318;51.262;7.066;2024-02-04T09:55:40;18.77;;;9.07;;
24161;SDS011;12318;51.262;7.066;2024-02-04T09:58:07;15.25;;;8.68;;
24161;SDS011;12318;51.262;7.066;2024-02-04T10:00:33;14.15;;;8.55;;
24161;SDS011;12318;51.262;7.066;2024-02-04T10:02:59;12.10;;;7.50;;
24161;SDS011;12318;51.262;7.066;2024-02-04T10:05:26;13.10;;;8.00;;
24161;SDS011;12318;51.262;7.066;2024-02-04T10:07:52;16.13;;;8.80;;
24161;SDS011;12318;51.262;7.066;2024-02-04T10:10:18;15.80;;;8.60;;
24161;SDS011;12318;51.262;7.066;2024-02-04T10:12:44;14.00;;;8.82;;
24161;SDS011;12318;51.262;7.066;2024-02-04T10:15:10;14.18;;;8.18;;
24161;SDS011;12318;51.262;7.066;2024-02-04T10:17:41;16.35;;;8.15;;
24161;SDS011;12318;51.262;7.066;2024-02-04T10:20:09;16.10;;;8.45;;
24161;SDS011;12318;51.262;7.066;2024-02-04T10:22:37;17.90;;;9.32;;
24161;SDS011;12318;51.262;7.066;2024-02-04T10:25:09;14.55;;;8.50;;
24161;SDS011;12318;51.262;7.066;2024-02-04T10:27:37;14.18;;;8.43;;
24161;SDS011;12318;51.262;7.066;2024-02-04T10:30:04;17.02;;;8.70;;
24161;SDS011;12318;51.262;7.066;2024-02-04T10:32:32;23.13;;;9.88;;
24161;SDS011;12318;51.262;7.066;2024-02-04T10:34:58;14.65;;;8.85;;
24161;SDS011;12318;51.262;7.066;2024-02-04T10:37:26;20.50;;;9.55;;
24161;SDS011;12318;51.262;7.066;2024-02-04T10:39:52;18.33;;;10.02;;
24161;SDS011;12318;51.262;7.066;2024-02-04T10:42:18;18.17;;;9.90;;
24161;SDS011;12318;51.262;7.066;2024-02-04T10:44:48;19.98;;;9.88;;
24161;SDS011;12318;51.262;7.066;2024-02-04T10:47:16;20.50;;;9.52;;
24161;SDS011;12318;51.262;7.066;2024-02-04T10:49:45;16.17;;;9.90;;
24161;SDS011;12318;51.262;7.066;2024-02-04T10:52:15;23.40;;;10.98;;
24161;SDS011;12318;51.262;7.066;2024-02-04T10:54:44;22.33;;;11.60;;
24161;SDS011;12318;51.262;7.066;2024-02-04T10:57:12;18.42;;;10.27;;
24161;SDS011;12318;51.262;7.066;2024-02-04T10:59:41;17.10;;;9.15;;
24161;SDS011;12318;51.262;7.066;2024-02-04T11:02:09;15.05;;;8.10;;
24161;SDS011;12318;51.262;7.066;2024-02-04T11:04:37;20.58;;;9.27;;
24161;SDS011;12318;51.262;7.066;2024-02-04T11:07:04;16.17;;;8.77;;
24161;SDS011;12318;51.262;7.066;2024-02-04T11:09:30;16.65;;;8.77;;
24161;SDS011;12318;51.262;7.066;2024-02-04T11:11:57;20.63;;;9.93;;
24161;SDS011;12318;51.262;7.066;2024-02-04T11:14:24;21.42;;;9.68;;
24161;SDS011;12318;51.262;7.066;2024-02-04T11:19:23;21.00;;;10.35;;
24161;SDS011;12318;51.262;7.066;2024-02-04T11:27:01;24.63;;;11.52;;
24161;SDS011;12318;51.262;7.066;2024-02-04T11:29:27;21.92;;;11.02;;
24161;SDS011;12318;51.262;7.066;2024-02-04T11:31:53;29.02;;;12.25;;
24161;SDS011;12318;51.262;7.066;2024-02-04T11:34:19;26.08;;;11.98;;
24161;SDS011;12318;51.262;7.066;2024-02-04T11:36:46;27.88;;;11.73;;
24161;SDS011;12318;51.262;7.066;2024-02-04T11:39:12;27.10;;;11.38;;
24161;SDS011;12318;51.262;7.066;2024-02-04T11:41:46;20.38;;;9.57;;
24161;SDS011;12318;51.262;7.066;2024-02-04T11:44:12;24.67;;;10.40;;
24161;SDS011;12318;51.262;7.066;2024-02-04T11:46:38;27.98;;;11.55;;
24161;SDS011;12318;51.262;7.066;2024-02-04T11:49:13;28.17;;;11.90;;
24161;SDS011;12318;51.262;7.066;2024-02-04T11:51:40;22.13;;;11.02;;
24161;SDS011;12318;51.262;7.066;2024-02-04T11:54:07;25.40;;;11.05;;
24161;SDS011;12318;51.262;7.066;2024-02-04T11:56:33;26.23;;;11.35;;
24161;SDS011;12318;51.262;7.066;2024-02-04T11:59:01;18.60;;;10.35;;
24161;SDS011;12318;51.262;7.066;2024-02-04T12:01:30;20.33;;;10.30;;
24161;SDS011;12318;51.262;7.066;2024-02-04T12:04:08;13.88;;;7.63;;
24161;SDS011;12318;51.262;7.066;2024-02-04T12:06:34;20.15;;;10.70;;
24161;SDS011;12318;51.262;7.066;2024-02-04T12:09:01;21.42;;;9.52;;
24161;SDS011;12318;51.262;7.066;2024-02-04T12:11:29;17.98;;;9.18;;
24161;SDS011;12318;51.262;7.066;2024-02-04T12:13:56;18.27;;;9.82;;
24161;SDS011;12318;51.262;7.066;2024-02-04T12:16:22;22.67;;;10.63;;
24161;SDS011;12318;51.262;7.066;2024-02-04T12:18:49;22.35;;;11.05;;
24161;SDS011;12318;51.262;7.066;2024-02-04T12:21:15;17.30;;;10.15;;
24161;SDS011;12318;51.262;7.066;2024-02-04T12:23:41;18.67;;;10.23;;
24161;SDS011;12318;51.262;7.066;2024-02-04T12:26:08;16.33;;;9.63;;
24161;SDS011;12318;51.262;7.066;2024-02-04T12:28:34;16.38;;;9.27;;
24161;SDS011;12318;51.262;7.066;2024-02-04T12:31:00;21.73;;;10.80;;
24161;SDS011;12318;51.262;7.066;2024-02-04T12:33:26;15.65;;;8.98;;
24161;SDS011;12318;51.262;7.066;2024-02-04T12:35:52;16.02;;;9.20;;
24161;SDS011;12318;51.262;7.066;2024-02-04T12:38:21;17.70;;;10.23;;
24161;SDS011;12318;51.262;7.066;2024-02-04T12:40:47;19.83;;;11.05;;
24161;SDS011;12318;51.262;7.066;2024-02-04T12:43:14;21.15;;;10.80;;
24161;SDS011;12318;51.262;7.066;2024-02-04T12:45:40;19.95;;;10.73;;
24161;SDS011;12318;51.262;7.066;2024-02-04T12:48:07;16.77;;;10.20;;
24161;SDS011;12318;51.262;7.066;2024-02-04T12:50:36;15.23;;;9.18;;
24161;SDS011;12318;51.262;7.066;2024-02-04T12:53:06;17.15;;;10.02;;
24161;SDS011;12318;51.262;7.066;2024-02-04T12:55:35;13.77;;;9.18;;
24161;SDS011;12318;51.262;7.066;2024-02-04T12:58:05;18.35;;;10.07;;
24161;SDS011;12318;51.262;7.066;2024-02-04T13:00:34;13.90;;;8.73;;
24161;SDS011;12318;51.262;7.066;2024-02-04T13:03:01;14.27;;;8.55;;
24161;SDS011;12318;51.262;7.066;2024-02-04T13:05:29;16.30;;;8.55;;
24161;SDS011;12318;51.262;7.066;2024-02-04T13:07:58;16.58;;;8.65;;
24161;SDS011;12318;51.262;7.066;2024-02-04T13:10:27;11.32;;;7.00;;
24161;SDS011;12318;51.262;7.066;2024-02-04T13:15:26;11.65;;;6.47;;
24161;SDS011;12318;51.262;7.066;2024-02-04T13:17:53;12.63;;;7.28;;
24161;SDS011;12318;51.262;7.066;2024-02-04T13:20:19;10.65;;;6.88;;
24161;SDS011;12318;51.262;7.066;2024-02-04T13:22:45;11.02;;;7.05;;
24161;SDS011;12318;51.262;7.066;2024-02-04T13:25:11;11.68;;;7.07;;
24161;SDS011;12318;51.262;7.066;2024-02-04T13:27:37;14.20;;;8.75;;
24161;SDS011;12318;51.262;7.066;2024-02-04T13:30:04;12.55;;;6.88;;
24161;SDS011;12318;51.262;7.066;2024-02-04T13:32:38;14.20;;;8.45;;
24161;SDS011;12318;51.262;7.066;2024-02-04T13:35:04;11.70;;;7.50;;
24161;SDS011;12318;51.262;7.066;2024-02-04T13:37:31;13.25;;;8.30;;
24161;SDS011;12318;51.262;7.066;2024-02-04T13:39:57;12.38;;;8.27;;
24161;SDS011;12318;51.262;7.066;2024-02-04T13:42:23;12.63;;;8.68;;
24161;SDS011;12318;51.262;7.066;2024-02-04T13:44:49;13.10;;;8.90;;
24161;SDS011;12318;51.262;7.066;2024-02-04T13:47:15;15.10;;;10.30;;
24161;SDS011;12318;51.262;7.066;2024-02-04T13:49:42;16.00;;;8.90;;
24161;SDS011;12318;51.262;7.066;2024-02-04T13:52:08;21.35;;;10.88;;
24161;SDS011;12318;51.262;7.066;2024-02-04T13:54:34;14.27;;;10.00;;
24161;SDS011;12318;51.262;7.066;2024-02-04T13:57:00;21.58;;;11.75;;
24161;SDS011;12318;51.262;7.066;2024-02-04T13:59:26;18.45;;;11.80;;
24161;SDS011;12318;51.262;7.066;2024-02-04T14:01:52;18.98;;;11.27;;
24161;SDS011;12318;51.262;7.066;2024-02-04T14:04:18;17.23;;;10.30;;
24161;SDS011;12318;51.262;7.066;2024-02-04T14:06:44;18.83;;;11.43;;
24161;SDS011;12318;51.262;7.066;2024-02-04T14:09:11;14.15;;;9.88;;
24161;SDS011;12318;51.262;7.066;2024-02-04T14:11:40;21.63;;;11.90;;
24161;SDS011;12318;51.262;7.066;2024-02-04T14:14:06;23.23;;;13.48;;
24161;SDS011;12318;51.262;7.066;2024-02-04T14:16:32;16.02;;;10.73;;
24161;SDS011;12318;51.262;7.066;2024-02-04T14:18:58;20.85;;;13.13;;
24161;SDS011;12318;51.262;7.066;2024-02-04T14:21:24;19.60;;;10.77;;
24161;SDS011;12318;51.262;7.066;2024-02-04T14:23:51;21.95;;;13.13;;
24161;SDS011;12318;51.262;7.066;2024-02-04T14:26:17;18.63;;;11.63;;
24161;SDS011;12318;51.262;7.066;2024-02-04T14:28:43;16.83;;;10.90;;
24161;SDS011;12318;51.262;7.066;2024-02-04T14:31:09;18.98;;;11.38;;
24161;SDS011;12318;51.262;7.066;2024-02-04T14:33:36;17.95;;;10.52;;
24161;SDS011;12318;51.262;7.066;2024-02-04T14:36:02;16.35;;;10.77;;
24161;SDS011;12318;51.262;7.066;2024-02-04T14:38:29;18.20;;;11.90;;